sensor_id;sensor_type;location;lat;lon;timestamp;P1;durP1;ratioP1;P2;durP2;ratioP2
13943;SDS011;7044;53.286;8.534;2022-11-18T00:02:20;10.70;;;6.90;;
13943;SDS011;7044;53.286;8.534;2022-11-18T00:04:47;9.53;;;6.33;;
13943;SDS011;7044;53.286;8.534;2022-11-18T00:07:14;11.23;;;6.93;;
13943;SDS011;7044;53.286;8.534;2022-11-18T00:09:40;11.33;;;7.27;;
13943;SDS011;7044;53.286;8.534;2022-11-18T00:12:07;10.70;;;6.77;;
13943;SDS011;7044;53.286;8.534;2022-11-18T00:14:53;10.53;;;6.40;;
13943;SDS011;7044;53.286;8.534;2022-11-18T00:17:20;10.10;;;6.63;;
13943;SDS011;7044;53.286;8.534;2022-11-18T00:19:47;9.63;;;6.80;;
13943;SDS011;7044;53.286;8.534;2022-11-18T00:22:14;11.57;;;6.83;;
13943;SDS011;7044;53.286;8.534;2022-11-18T00:24:40;8.77;;;7.00;;
13943;SDS011;7044;53.286;8.534;2022-11-18T00:27:07;10.93;;;6.33;;
13943;SDS011;7044;53.286;8.534;2022-11-18T00:29:34;11.73;;;6.10;;
13943;SDS011;7044;53.286;8.534;2022-11-18T00:32:04;11.70;;;7.30;;
13943;SDS011;7044;53.286;8.534;2022-11-18T00:34:32;9.33;;;5.93;;
13943;SDS011;7044;53.286;8.534;2022-11-18T00:36:59;11.63;;;6.37;;
13943;SDS011;7044;53.286;8.534;2022-11-18T00:39:26;9.27;;;6.33;;
13943;SDS011;7044;53.286;8.534;2022-11-18T00:41:52;9.63;;;6.37;;
13943;SDS011;7044;53.286;8.534;2022-11-18T00:44:37;8.97;;;5.90;;
13943;SDS011;7044;53.286;8.534;2022-11-18T00:47:05;11.23;;;6.57;;
13943;SDS011;7044;53.286;8.534;2022-11-18T00:49:32;10.80;;;6.33;;
13943;SDS011;7044;53.286;8.534;2022-11-18T00:51:59;10.00;;;7.00;;
13943;SDS011;7044;53.286;8.534;2022-11-18T00:54:26;12.40;;;7.13;;
13943;SDS011;7044;53.286;8.534;2022-11-18T00:56:53;11.90;;;6.03;;
13943;SDS011;7044;53.286;8.534;2022-11-18T00:59:20;9.20;;;6.27;;
13943;SDS011;7044;53.286;8.534;2022-11-18T01:01:47;11.23;;;6.53;;
13943;SDS011;7044;53.286;8.534;2022-11-18T01:04:15;10.20;;;6.40;;
13943;SDS011;7044;53.286;8.534;2022-11-18T01:06:42;11.37;;;6.97;;
13943;SDS011;7044;53.286;8.534;2022-11-18T01:09:09;10.50;;;7.33;;
13943;SDS011;7044;53.286;8.534;2022-11-18T01:11:36;12.50;;;7.83;;
13943;SDS011;7044;53.286;8.534;2022-11-18T01:14:22;13.93;;;6.93;;
13943;SDS011;7044;53.286;8.534;2022-11-18T01:16:49;14.17;;;7.97;;
13943;SDS011;7044;53.286;8.534;2022-11-18T01:19:20;12.77;;;7.13;;
13943;SDS011;7044;53.286;8.534;2022-11-18T01:21:47;9.97;;;6.93;;
13943;SDS011;7044;53.286;8.534;2022-11-18T01:24:15;10.03;;;7.20;;
13943;SDS011;7044;53.286;8.534;2022-11-18T01:26:41;11.17;;;7.37;;
13943;SDS011;7044;53.286;8.534;2022-11-18T01:29:08;12.23;;;7.43;;
13943;SDS011;7044;53.286;8.534;2022-11-18T01:31:36;9.60;;;6.60;;
13943;SDS011;7044;53.286;8.534;2022-11-18T01:34:03;12.47;;;7.10;;
13943;SDS011;7044;53.286;8.534;2022-11-18T01:36:32;12.03;;;6.93;;
13943;SDS011;7044;53.286;8.534;2022-11-18T01:38:59;11.40;;;6.60;;
13943;SDS011;7044;53.286;8.534;2022-11-18T01:41:26;8.93;;;6.17;;
13943;SDS011;7044;53.286;8.534;2022-11-18T01:43:53;9.50;;;6.33;;
13943;SDS011;7044;53.286;8.534;2022-11-18T01:46:22;8.93;;;5.80;;
13943;SDS011;7044;53.286;8.534;2022-11-18T01:48:51;9.10;;;5.77;;
13943;SDS011;7044;53.286;8.534;2022-11-18T01:51:22;8.43;;;5.43;;
13943;SDS011;7044;53.286;8.534;2022-11-18T01:53:54;6.70;;;5.17;;
13943;SDS011;7044;53.286;8.534;2022-11-18T01:56:27;8.20;;;5.10;;
13943;SDS011;7044;53.286;8.534;2022-11-18T01:58:59;6.93;;;5.23;;
13943;SDS011;7044;53.286;8.534;2022-11-18T02:01:30;9.70;;;5.80;;
13943;SDS011;7044;53.286;8.534;2022-11-18T02:03:57;9.57;;;5.17;;
13943;SDS011;7044;53.286;8.534;2022-11-18T02:06:24;6.63;;;5.03;;
13943;SDS011;7044;53.286;8.534;2022-11-18T02:08:53;8.23;;;5.37;;
13943;SDS011;7044;53.286;8.534;2022-11-18T02:11:21;8.13;;;5.20;;
13943;SDS011;7044;53.286;8.534;2022-11-18T02:14:06;8.67;;;5.70;;
13943;SDS011;7044;53.286;8.534;2022-11-18T02:19:36;8.90;;;5.67;;
13943;SDS011;7044;53.286;8.534;2022-11-18T02:22:18;11.83;;;6.47;;
13943;SDS011;7044;53.286;8.534;2022-11-18T02:25:03;9.67;;;5.57;;
13943;SDS011;7044;53.286;8.534;2022-11-18T02:30:48;8.40;;;5.47;;
13943;SDS011;7044;53.286;8.534;2022-11-18T02:33:21;8.40;;;5.53;;
13943;SDS011;7044;53.286;8.534;2022-11-18T02:35:52;9.87;;;5.60;;
13943;SDS011;7044;53.286;8.534;2022-11-18T02:38:25;8.73;;;6.10;;
13943;SDS011;7044;53.286;8.534;2022-11-18T02:40:57;8.27;;;5.33;;
13943;SDS011;7044;53.286;8.534;2022-11-18T02:43:29;8.47;;;5.40;;
13943;SDS011;7044;53.286;8.534;2022-11-18T02:46:01;8.77;;;4.83;;
13943;SDS011;7044;53.286;8.534;2022-11-18T02:48:31;10.07;;;5.43;;
13943;SDS011;7044;53.286;8.534;2022-11-18T02:51:01;8.53;;;6.10;;
13943;SDS011;7044;53.286;8.534;2022-11-18T02:53:32;9.03;;;6.03;;
13943;SDS011;7044;53.286;8.534;2022-11-18T02:56:01;9.07;;;4.97;;
13943;SDS011;7044;53.286;8.534;2022-11-18T02:58:28;9.27;;;5.67;;
13943;SDS011;7044;53.286;8.534;2022-11-18T03:00:56;8.80;;;5.57;;
13943;SDS011;7044;53.286;8.534;2022-11-18T03:03:27;7.23;;;5.20;;
13943;SDS011;7044;53.286;8.534;2022-11-18T03:05:59;8.80;;;5.70;;
13943;SDS011;7044;53.286;8.534;2022-11-18T03:08:34;8.97;;;5.30;;
13943;SDS011;7044;53.286;8.534;2022-11-18T03:11:06;8.33;;;5.47;;
13943;SDS011;7044;53.286;8.534;2022-11-18T03:13:41;10.63;;;6.30;;
13943;SDS011;7044;53.286;8.534;2022-11-18T03:16:18;10.67;;;6.37;;
13943;SDS011;7044;53.286;8.534;2022-11-18T03:18:53;10.93;;;6.13;;
13943;SDS011;7044;53.286;8.534;2022-11-18T03:21:27;9.33;;;6.10;;
13943;SDS011;7044;53.286;8.534;2022-11-18T03:24:02;7.50;;;5.13;;
13943;SDS011;7044;53.286;8.534;2022-11-18T03:26:35;11.13;;;6.10;;
13943;SDS011;7044;53.286;8.534;2022-11-18T03:29:06;9.97;;;5.83;;
13943;SDS011;7044;53.286;8.534;2022-11-18T03:31:38;11.43;;;6.33;;
13943;SDS011;7044;53.286;8.534;2022-11-18T03:34:09;9.50;;;6.13;;
13943;SDS011;7044;53.286;8.534;2022-11-18T03:36:40;12.83;;;6.23;;
13943;SDS011;7044;53.286;8.534;2022-11-18T03:39:10;8.50;;;5.90;;
13943;SDS011;7044;53.286;8.534;2022-11-18T03:41:41;9.27;;;6.13;;
13943;SDS011;7044;53.286;8.534;2022-11-18T03:44:16;9.90;;;6.00;;
13943;SDS011;7044;53.286;8.534;2022-11-18T03:46:49;8.30;;;5.17;;
13943;SDS011;7044;53.286;8.534;2022-11-18T03:49:23;8.97;;;6.13;;
13943;SDS011;7044;53.286;8.534;2022-11-18T03:51:54;10.37;;;6.33;;
13943;SDS011;7044;53.286;8.534;2022-11-18T03:54:27;9.77;;;6.37;;
13943;SDS011;7044;53.286;8.534;2022-11-18T03:56:56;8.77;;;5.90;;
13943;SDS011;7044;53.286;8.534;2022-11-18T03:59:26;11.43;;;6.77;;
13943;SDS011;7044;53.286;8.534;2022-11-18T04:01:58;10.07;;;6.47;;
13943;SDS011;7044;53.286;8.534;2022-11-18T04:04:30;11.70;;;7.17;;
13943;SDS011;7044;53.286;8.534;2022-11-18T04:06:59;12.70;;;7.20;;
13943;SDS011;7044;53.286;8.534;2022-11-18T04:09:29;15.60;;;6.47;;
13943;SDS011;7044;53.286;8.534;2022-11-18T04:12:01;11.80;;;6.20;;
13943;SDS011;7044;53.286;8.534;2022-11-18T04:14:31;10.33;;;6.60;;
13943;SDS011;7044;53.286;8.534;2022-11-18T04:16:59;12.40;;;7.10;;
13943;SDS011;7044;53.286;8.534;2022-11-18T04:19:31;12.63;;;7.13;;
13943;SDS011;7044;53.286;8.534;2022-11-18T04:21:58;8.73;;;5.83;;
13943;SDS011;7044;53.286;8.534;2022-11-18T04:24:25;12.00;;;7.93;;
13943;SDS011;7044;53.286;8.534;2022-11-18T04:26:52;10.93;;;6.23;;
13943;SDS011;7044;53.286;8.534;2022-11-18T04:29:19;9.33;;;6.17;;
13943;SDS011;7044;53.286;8.534;2022-11-18T04:31:46;10.03;;;7.07;;
13943;SDS011;7044;53.286;8.534;2022-11-18T04:34:13;9.77;;;6.67;;
13943;SDS011;7044;53.286;8.534;2022-11-18T04:36:41;11.57;;;6.90;;
13943;SDS011;7044;53.286;8.534;2022-11-18T04:39:08;10.13;;;6.57;;
13943;SDS011;7044;53.286;8.534;2022-11-18T04:41:35;11.57;;;6.70;;
13943;SDS011;7044;53.286;8.534;2022-11-18T04:44:19;13.80;;;7.20;;
13943;SDS011;7044;53.286;8.534;2022-11-18T04:46:46;9.10;;;5.87;;
13943;SDS011;7044;53.286;8.534;2022-11-18T04:49:13;10.13;;;6.60;;
13943;SDS011;7044;53.286;8.534;2022-11-18T04:51:42;13.30;;;6.70;;
13943;SDS011;7044;53.286;8.534;2022-11-18T04:54:09;11.30;;;6.73;;
13943;SDS011;7044;53.286;8.534;2022-11-18T04:56:37;11.90;;;6.93;;
13943;SDS011;7044;53.286;8.534;2022-11-18T04:59:04;9.07;;;6.50;;
13943;SDS011;7044;53.286;8.534;2022-11-18T05:01:32;9.57;;;6.40;;
13943;SDS011;7044;53.286;8.534;2022-11-18T05:03:59;9.63;;;6.53;;
13943;SDS011;7044;53.286;8.534;2022-11-18T05:06:26;10.47;;;6.40;;
13943;SDS011;7044;53.286;8.534;2022-11-18T05:08:55;10.87;;;6.83;;
13943;SDS011;7044;53.286;8.534;2022-11-18T05:11:23;9.00;;;6.07;;
13943;SDS011;7044;53.286;8.534;2022-11-18T05:14:07;9.00;;;6.60;;
13943;SDS011;7044;53.286;8.534;2022-11-18T05:16:34;9.83;;;7.03;;
13943;SDS011;7044;53.286;8.534;2022-11-18T05:19:03;10.47;;;7.17;;
13943;SDS011;7044;53.286;8.534;2022-11-18T05:21:30;10.67;;;6.67;;
13943;SDS011;7044;53.286;8.534;2022-11-18T05:23:59;10.60;;;6.50;;
13943;SDS011;7044;53.286;8.534;2022-11-18T05:26:26;9.10;;;6.60;;
13943;SDS011;7044;53.286;8.534;2022-11-18T05:28:53;10.47;;;6.93;;
13943;SDS011;7044;53.286;8.534;2022-11-18T05:31:20;9.20;;;5.97;;
13943;SDS011;7044;53.286;8.534;2022-11-18T05:33:47;11.00;;;6.50;;
13943;SDS011;7044;53.286;8.534;2022-11-18T05:36:15;13.87;;;6.13;;
13943;SDS011;7044;53.286;8.534;2022-11-18T05:38:45;12.60;;;7.57;;
13943;SDS011;7044;53.286;8.534;2022-11-18T05:41:13;15.40;;;7.47;;
13943;SDS011;7044;53.286;8.534;2022-11-18T05:44:01;10.53;;;7.03;;
13943;SDS011;7044;53.286;8.534;2022-11-18T05:46:27;10.90;;;6.90;;
13943;SDS011;7044;53.286;8.534;2022-11-18T05:48:54;9.93;;;6.70;;
13943;SDS011;7044;53.286;8.534;2022-11-18T05:51:21;11.53;;;7.27;;
13943;SDS011;7044;53.286;8.534;2022-11-18T05:53:49;10.47;;;7.27;;
13943;SDS011;7044;53.286;8.534;2022-11-18T05:56:19;10.30;;;6.73;;
13943;SDS011;7044;53.286;8.534;2022-11-18T05:58:48;10.37;;;6.23;;
13943;SDS011;7044;53.286;8.534;2022-11-18T06:01:16;10.87;;;6.97;;
13943;SDS011;7044;53.286;8.534;2022-11-18T06:03:46;11.03;;;7.03;;
13943;SDS011;7044;53.286;8.534;2022-11-18T06:06:14;9.73;;;6.43;;
13943;SDS011;7044;53.286;8.534;2022-11-18T06:08:44;9.57;;;6.30;;
13943;SDS011;7044;53.286;8.534;2022-11-18T06:11:15;11.90;;;6.67;;
13943;SDS011;7044;53.286;8.534;2022-11-18T06:13:46;10.27;;;6.10;;
13943;SDS011;7044;53.286;8.534;2022-11-18T06:16:17;11.80;;;7.27;;
13943;SDS011;7044;53.286;8.534;2022-11-18T06:18:48;11.17;;;7.23;;
13943;SDS011;7044;53.286;8.534;2022-11-18T06:21:15;9.47;;;6.50;;
13943;SDS011;7044;53.286;8.534;2022-11-18T06:23:42;9.93;;;6.27;;
13943;SDS011;7044;53.286;8.534;2022-11-18T06:26:11;14.40;;;7.53;;
13943;SDS011;7044;53.286;8.534;2022-11-18T06:28:39;11.07;;;6.33;;
13943;SDS011;7044;53.286;8.534;2022-11-18T06:31:09;11.43;;;7.20;;
13943;SDS011;7044;53.286;8.534;2022-11-18T06:33:36;8.93;;;6.27;;
13943;SDS011;7044;53.286;8.534;2022-11-18T06:36:03;9.23;;;5.80;;
13943;SDS011;7044;53.286;8.534;2022-11-18T06:38:30;9.40;;;5.90;;
13943;SDS011;7044;53.286;8.534;2022-11-18T06:40:57;10.53;;;6.87;;
13943;SDS011;7044;53.286;8.534;2022-11-18T06:43:25;10.07;;;6.60;;
13943;SDS011;7044;53.286;8.534;2022-11-18T06:46:06;10.83;;;6.30;;
13943;SDS011;7044;53.286;8.534;2022-11-18T06:48:53;10.80;;;6.30;;
13943;SDS011;7044;53.286;8.534;2022-11-18T06:51:20;10.57;;;6.30;;
13943;SDS011;7044;53.286;8.534;2022-11-18T06:53:48;8.83;;;6.13;;
13943;SDS011;7044;53.286;8.534;2022-11-18T06:56:15;9.77;;;6.50;;
13943;SDS011;7044;53.286;8.534;2022-11-18T06:58:43;10.10;;;6.33;;
13943;SDS011;7044;53.286;8.534;2022-11-18T07:01:11;8.67;;;6.33;;
13943;SDS011;7044;53.286;8.534;2022-11-18T07:03:39;9.53;;;6.67;;
13943;SDS011;7044;53.286;8.534;2022-11-18T07:06:08;9.23;;;6.30;;
13943;SDS011;7044;53.286;8.534;2022-11-18T07:08:36;10.43;;;6.57;;
13943;SDS011;7044;53.286;8.534;2022-11-18T07:11:04;9.13;;;6.30;;
13943;SDS011;7044;53.286;8.534;2022-11-18T07:13:33;11.23;;;6.83;;
13943;SDS011;7044;53.286;8.534;2022-11-18T07:16:01;11.20;;;6.97;;
13943;SDS011;7044;53.286;8.534;2022-11-18T07:18:29;10.67;;;6.80;;
13943;SDS011;7044;53.286;8.534;2022-11-18T07:20:56;10.17;;;7.00;;
13943;SDS011;7044;53.286;8.534;2022-11-18T07:23:28;9.70;;;6.70;;
13943;SDS011;7044;53.286;8.534;2022-11-18T07:25:55;11.63;;;7.30;;
13943;SDS011;7044;53.286;8.534;2022-11-18T07:28:22;13.57;;;8.27;;
13943;SDS011;7044;53.286;8.534;2022-11-18T07:30:48;12.00;;;7.47;;
13943;SDS011;7044;53.286;8.534;2022-11-18T07:33:16;12.07;;;7.53;;
13943;SDS011;7044;53.286;8.534;2022-11-18T07:35:43;11.90;;;7.70;;
13943;SDS011;7044;53.286;8.534;2022-11-18T07:38:10;10.60;;;6.93;;
13943;SDS011;7044;53.286;8.534;2022-11-18T07:40:38;13.23;;;8.00;;
13943;SDS011;7044;53.286;8.534;2022-11-18T07:43:05;11.17;;;7.53;;
13943;SDS011;7044;53.286;8.534;2022-11-18T07:45:32;11.50;;;7.50;;
13943;SDS011;7044;53.286;8.534;2022-11-18T07:47:59;14.37;;;7.07;;
13943;SDS011;7044;53.286;8.534;2022-11-18T07:50:26;11.37;;;7.30;;
13943;SDS011;7044;53.286;8.534;2022-11-18T07:52:54;12.20;;;7.87;;
13943;SDS011;7044;53.286;8.534;2022-11-18T07:55:21;12.13;;;6.93;;
13943;SDS011;7044;53.286;8.534;2022-11-18T07:57:50;12.70;;;7.83;;
13943;SDS011;7044;53.286;8.534;2022-11-18T08:00:17;12.60;;;8.67;;
13943;SDS011;7044;53.286;8.534;2022-11-18T08:02:44;14.47;;;8.63;;
13943;SDS011;7044;53.286;8.534;2022-11-18T08:05:15;13.33;;;8.20;;
13943;SDS011;7044;53.286;8.534;2022-11-18T08:07:42;12.97;;;8.43;;
13943;SDS011;7044;53.286;8.534;2022-11-18T08:10:09;11.73;;;7.60;;
13943;SDS011;7044;53.286;8.534;2022-11-18T08:12:35;13.50;;;8.43;;
13943;SDS011;7044;53.286;8.534;2022-11-18T08:15:04;15.20;;;9.37;;
13943;SDS011;7044;53.286;8.534;2022-11-18T08:17:31;12.47;;;7.73;;
13943;SDS011;7044;53.286;8.534;2022-11-18T08:19:58;13.83;;;8.90;;
13943;SDS011;7044;53.286;8.534;2022-11-18T08:22:25;15.43;;;9.53;;
13943;SDS011;7044;53.286;8.534;2022-11-18T08:24:52;14.93;;;9.50;;
13943;SDS011;7044;53.286;8.534;2022-11-18T08:27:19;11.73;;;8.93;;
13943;SDS011;7044;53.286;8.534;2022-11-18T08:29:46;16.63;;;9.40;;
13943;SDS011;7044;53.286;8.534;2022-11-18T08:32:14;13.57;;;8.83;;
13943;SDS011;7044;53.286;8.534;2022-11-18T08:34:40;13.93;;;9.60;;
13943;SDS011;7044;53.286;8.534;2022-11-18T08:37:07;14.53;;;9.63;;
13943;SDS011;7044;53.286;8.534;2022-11-18T08:39:34;14.93;;;9.93;;
13943;SDS011;7044;53.286;8.534;2022-11-18T08:42:01;15.87;;;9.70;;
13943;SDS011;7044;53.286;8.534;2022-11-18T08:44:27;16.63;;;10.30;;
13943;SDS011;7044;53.286;8.534;2022-11-18T08:46:57;15.27;;;9.57;;
13943;SDS011;7044;53.286;8.534;2022-11-18T08:49:25;14.13;;;9.43;;
13943;SDS011;7044;53.286;8.534;2022-11-18T08:51:52;16.30;;;9.70;;
13943;SDS011;7044;53.286;8.534;2022-11-18T08:54:19;15.70;;;10.47;;
13943;SDS011;7044;53.286;8.534;2022-11-18T08:56:46;16.47;;;9.83;;
13943;SDS011;7044;53.286;8.534;2022-11-18T08:59:14;18.13;;;11.60;;
13943;SDS011;7044;53.286;8.534;2022-11-18T09:01:41;14.90;;;10.13;;
13943;SDS011;7044;53.286;8.534;2022-11-18T09:04:08;17.73;;;10.57;;
13943;SDS011;7044;53.286;8.534;2022-11-18T09:06:37;19.37;;;11.53;;
13943;SDS011;7044;53.286;8.534;2022-11-18T09:09:04;19.43;;;11.60;;
13943;SDS011;7044;53.286;8.534;2022-11-18T09:11:32;18.73;;;11.23;;
13943;SDS011;7044;53.286;8.534;2022-11-18T09:13:59;18.60;;;11.33;;
13943;SDS011;7044;53.286;8.534;2022-11-18T09:16:27;19.37;;;11.63;;
13943;SDS011;7044;53.286;8.534;2022-11-18T09:18:56;21.27;;;12.13;;
13943;SDS011;7044;53.286;8.534;2022-11-18T09:21:24;20.23;;;11.97;;
13943;SDS011;7044;53.286;8.534;2022-11-18T09:23:52;18.10;;;11.30;;
13943;SDS011;7044;53.286;8.534;2022-11-18T09:26:20;20.93;;;11.53;;
13943;SDS011;7044;53.286;8.534;2022-11-18T09:28:48;23.73;;;12.37;;
13943;SDS011;7044;53.286;8.534;2022-11-18T09:31:17;22.50;;;12.20;;
13943;SDS011;7044;53.286;8.534;2022-11-18T09:33:44;19.60;;;11.90;;
13943;SDS011;7044;53.286;8.534;2022-11-18T09:36:12;19.70;;;12.53;;
13943;SDS011;7044;53.286;8.534;2022-11-18T09:38:39;22.33;;;12.93;;
13943;SDS011;7044;53.286;8.534;2022-11-18T09:41:11;19.53;;;12.43;;
13943;SDS011;7044;53.286;8.534;2022-11-18T09:43:52;24.17;;;12.73;;
13943;SDS011;7044;53.286;8.534;2022-11-18T09:46:29;22.47;;;13.30;;
13943;SDS011;7044;53.286;8.534;2022-11-18T09:49:07;22.10;;;13.03;;
13943;SDS011;7044;53.286;8.534;2022-11-18T09:51:39;20.30;;;12.07;;
13943;SDS011;7044;53.286;8.534;2022-11-18T09:54:08;23.43;;;13.37;;
13943;SDS011;7044;53.286;8.534;2022-11-18T09:56:39;22.73;;;13.10;;
13943;SDS011;7044;53.286;8.534;2022-11-18T09:59:08;18.77;;;12.67;;
13943;SDS011;7044;53.286;8.534;2022-11-18T10:01:38;23.73;;;13.53;;
13943;SDS011;7044;53.286;8.534;2022-11-18T10:04:11;19.97;;;12.17;;
13943;SDS011;7044;53.286;8.534;2022-11-18T10:06:39;18.57;;;11.63;;
13943;SDS011;7044;53.286;8.534;2022-11-18T10:09:09;19.33;;;12.50;;
13943;SDS011;7044;53.286;8.534;2022-11-18T10:12:08;19.83;;;12.30;;
13943;SDS011;7044;53.286;8.534;2022-11-18T10:14:59;18.80;;;12.00;;
13943;SDS011;7044;53.286;8.534;2022-11-18T10:17:41;20.47;;;11.73;;
13943;SDS011;7044;53.286;8.534;2022-11-18T10:23:10;23.90;;;11.13;;
13943;SDS011;7044;53.286;8.534;2022-11-18T10:53:00;15.97;;;9.70;;
13943;SDS011;7044;53.286;8.534;2022-11-18T10:55:28;16.10;;;9.57;;
13943;SDS011;7044;53.286;8.534;2022-11-18T10:57:59;14.83;;;9.03;;
13943;SDS011;7044;53.286;8.534;2022-11-18T11:00:32;15.37;;;9.63;;
13943;SDS011;7044;53.286;8.534;2022-11-18T11:03:11;15.43;;;9.27;;
13943;SDS011;7044;53.286;8.534;2022-11-18T11:06:17;16.13;;;9.67;;
13943;SDS011;7044;53.286;8.534;2022-11-18T11:08:57;16.27;;;9.73;;
13943;SDS011;7044;53.286;8.534;2022-11-18T11:11:27;13.23;;;9.10;;
13943;SDS011;7044;53.286;8.534;2022-11-18T11:13:57;16.13;;;9.07;;
13943;SDS011;7044;53.286;8.534;2022-11-18T11:16:32;13.10;;;9.17;;
13943;SDS011;7044;53.286;8.534;2022-11-18T11:19:08;14.60;;;9.60;;
13943;SDS011;7044;53.286;8.534;2022-11-18T11:21:38;13.30;;;8.30;;
13943;SDS011;7044;53.286;8.534;2022-11-18T11:24:09;13.27;;;8.80;;
13943;SDS011;7044;53.286;8.534;2022-11-18T11:26:39;14.73;;;9.33;;
13943;SDS011;7044;53.286;8.534;2022-11-18T11:29:14;14.03;;;9.23;;
13943;SDS011;7044;53.286;8.534;2022-11-18T11:31:51;19.13;;;9.53;;
13943;SDS011;7044;53.286;8.534;2022-11-18T11:34:27;12.93;;;8.03;;
13943;SDS011;7044;53.286;8.534;2022-11-18T11:37:02;14.30;;;9.20;;
13943;SDS011;7044;53.286;8.534;2022-11-18T11:42:42;15.73;;;9.63;;
13943;SDS011;7044;53.286;8.534;2022-11-18T11:45:20;16.73;;;10.33;;
13943;SDS011;7044;53.286;8.534;2022-11-18T11:48:02;13.50;;;8.83;;
13943;SDS011;7044;53.286;8.534;2022-11-18T11:50:44;16.30;;;10.10;;
13943;SDS011;7044;53.286;8.534;2022-11-18T11:53:26;12.57;;;9.07;;
13943;SDS011;7044;53.286;8.534;2022-11-18T11:56:20;14.50;;;9.30;;
13943;SDS011;7044;53.286;8.534;2022-11-18T11:58:59;17.00;;;10.60;;
13943;SDS011;7044;53.286;8.534;2022-11-18T12:01:40;15.77;;;10.27;;
13943;SDS011;7044;53.286;8.534;2022-11-18T12:04:19;18.00;;;10.53;;
13943;SDS011;7044;53.286;8.534;2022-11-18T12:06:55;17.87;;;10.30;;
13943;SDS011;7044;53.286;8.534;2022-11-18T12:09:25;13.40;;;9.47;;
13943;SDS011;7044;53.286;8.534;2022-11-18T12:12:05;16.23;;;9.87;;
13943;SDS011;7044;53.286;8.534;2022-11-18T12:14:55;13.27;;;9.50;;
13943;SDS011;7044;53.286;8.534;2022-11-18T12:17:27;16.10;;;9.63;;
13943;SDS011;7044;53.286;8.534;2022-11-18T12:19:59;13.37;;;9.03;;
13943;SDS011;7044;53.286;8.534;2022-11-18T12:28:25;13.17;;;9.10;;
13943;SDS011;7044;53.286;8.534;2022-11-18T12:34:01;17.63;;;10.47;;
13943;SDS011;7044;53.286;8.534;2022-11-18T12:36:31;15.23;;;10.23;;
13943;SDS011;7044;53.286;8.534;2022-11-18T12:39:44;17.03;;;10.30;;
13943;SDS011;7044;53.286;8.534;2022-11-18T12:54:28;15.63;;;10.40;;
13943;SDS011;7044;53.286;8.534;2022-11-18T12:56:59;17.30;;;10.23;;
13943;SDS011;7044;53.286;8.534;2022-11-18T12:59:32;13.10;;;9.83;;
13943;SDS011;7044;53.286;8.534;2022-11-18T13:02:21;16.33;;;10.73;;
13943;SDS011;7044;53.286;8.534;2022-11-18T13:05:05;19.37;;;12.40;;
13943;SDS011;7044;53.286;8.534;2022-11-18T13:07:37;19.03;;;11.30;;
13943;SDS011;7044;53.286;8.534;2022-11-18T13:10:26;19.73;;;11.90;;
13943;SDS011;7044;53.286;8.534;2022-11-18T13:12:57;17.20;;;11.47;;
13943;SDS011;7044;53.286;8.534;2022-11-18T13:15:25;18.17;;;11.10;;
13943;SDS011;7044;53.286;8.534;2022-11-18T13:18:12;18.77;;;11.57;;
13943;SDS011;7044;53.286;8.534;2022-11-18T13:20:41;16.80;;;10.90;;
13943;SDS011;7044;53.286;8.534;2022-11-18T13:23:23;18.07;;;10.93;;
13943;SDS011;7044;53.286;8.534;2022-11-18T13:26:14;27.73;;;15.10;;
13943;SDS011;7044;53.286;8.534;2022-11-18T13:28:56;17.40;;;11.50;;
13943;SDS011;7044;53.286;8.534;2022-11-18T13:31:33;17.57;;;10.80;;
13943;SDS011;7044;53.286;8.534;2022-11-18T13:34:07;21.10;;;10.83;;
13943;SDS011;7044;53.286;8.534;2022-11-18T13:36:41;16.27;;;11.10;;
13943;SDS011;7044;53.286;8.534;2022-11-18T13:39:11;16.20;;;11.10;;
13943;SDS011;7044;53.286;8.534;2022-11-18T13:41:44;17.23;;;11.13;;
13943;SDS011;7044;53.286;8.534;2022-11-18T13:44:14;17.20;;;11.33;;
13943;SDS011;7044;53.286;8.534;2022-11-18T13:46:44;17.10;;;10.87;;
13943;SDS011;7044;53.286;8.534;2022-11-18T13:49:15;18.80;;;10.93;;
13943;SDS011;7044;53.286;8.534;2022-11-18T13:51:44;18.40;;;11.53;;
13943;SDS011;7044;53.286;8.534;2022-11-18T13:54:12;18.90;;;10.87;;
13943;SDS011;7044;53.286;8.534;2022-11-18T13:56:44;20.23;;;11.83;;
13943;SDS011;7044;53.286;8.534;2022-11-18T13:59:13;17.37;;;10.80;;
13943;SDS011;7044;53.286;8.534;2022-11-18T14:01:45;19.33;;;11.80;;
13943;SDS011;7044;53.286;8.534;2022-11-18T14:04:18;18.23;;;11.60;;
13943;SDS011;7044;53.286;8.534;2022-11-18T14:14:11;17.60;;;11.10;;
13943;SDS011;7044;53.286;8.534;2022-11-18T14:16:54;19.93;;;10.37;;
13943;SDS011;7044;53.286;8.534;2022-11-18T14:19:41;17.07;;;10.07;;
13943;SDS011;7044;53.286;8.534;2022-11-18T14:22:11;15.73;;;9.87;;
13943;SDS011;7044;53.286;8.534;2022-11-18T14:24:40;16.87;;;10.40;;
13943;SDS011;7044;53.286;8.534;2022-11-18T14:29:53;14.27;;;8.50;;
13943;SDS011;7044;53.286;8.534;2022-11-18T14:32:21;13.57;;;10.17;;
13943;SDS011;7044;53.286;8.534;2022-11-18T14:34:55;13.33;;;9.47;;
13943;SDS011;7044;53.286;8.534;2022-11-18T14:37:23;13.20;;;9.17;;
13943;SDS011;7044;53.286;8.534;2022-11-18T14:39:53;14.13;;;9.37;;
13943;SDS011;7044;53.286;8.534;2022-11-18T14:42:20;14.53;;;10.03;;
13943;SDS011;7044;53.286;8.534;2022-11-18T14:44:47;15.73;;;10.00;;
13943;SDS011;7044;53.286;8.534;2022-11-18T14:47:15;15.83;;;10.30;;
13943;SDS011;7044;53.286;8.534;2022-11-18T14:49:52;11.40;;;8.43;;
13943;SDS011;7044;53.286;8.534;2022-11-18T14:52:19;14.67;;;9.40;;
13943;SDS011;7044;53.286;8.534;2022-11-18T14:54:46;13.77;;;9.40;;
13943;SDS011;7044;53.286;8.534;2022-11-18T14:57:15;13.33;;;9.10;;
13943;SDS011;7044;53.286;8.534;2022-11-18T14:59:43;13.33;;;8.37;;
13943;SDS011;7044;53.286;8.534;2022-11-18T15:02:11;11.50;;;8.13;;
13943;SDS011;7044;53.286;8.534;2022-11-18T15:04:39;14.50;;;8.43;;
13943;SDS011;7044;53.286;8.534;2022-11-18T15:07:09;11.13;;;7.90;;
13943;SDS011;7044;53.286;8.534;2022-11-18T15:09:38;13.07;;;7.57;;
13943;SDS011;7044;53.286;8.534;2022-11-18T15:12:05;12.37;;;8.07;;
13943;SDS011;7044;53.286;8.534;2022-11-18T15:14:32;12.50;;;8.13;;
13943;SDS011;7044;53.286;8.534;2022-11-18T15:16:59;12.37;;;7.70;;
13943;SDS011;7044;53.286;8.534;2022-11-18T15:19:26;10.50;;;7.47;;
13943;SDS011;7044;53.286;8.534;2022-11-18T15:21:53;11.80;;;7.70;;
13943;SDS011;7044;53.286;8.534;2022-11-18T15:24:22;12.23;;;8.13;;
13943;SDS011;7044;53.286;8.534;2022-11-18T15:26:48;11.13;;;7.27;;
13943;SDS011;7044;53.286;8.534;2022-11-18T15:29:16;12.13;;;7.37;;
13943;SDS011;7044;53.286;8.534;2022-11-18T15:31:44;11.03;;;7.30;;
13943;SDS011;7044;53.286;8.534;2022-11-18T15:34:11;8.43;;;6.60;;
13943;SDS011;7044;53.286;8.534;2022-11-18T15:36:41;10.43;;;7.03;;
13943;SDS011;7044;53.286;8.534;2022-11-18T15:39:08;11.33;;;6.93;;
13943;SDS011;7044;53.286;8.534;2022-11-18T15:41:37;9.97;;;6.73;;
13943;SDS011;7044;53.286;8.534;2022-11-18T15:44:06;9.87;;;6.87;;
13943;SDS011;7044;53.286;8.534;2022-11-18T15:46:34;9.57;;;6.40;;
13943;SDS011;7044;53.286;8.534;2022-11-18T15:49:01;9.93;;;6.93;;
13943;SDS011;7044;53.286;8.534;2022-11-18T15:51:28;9.67;;;6.20;;
13943;SDS011;7044;53.286;8.534;2022-11-18T15:53:57;9.67;;;6.53;;
13943;SDS011;7044;53.286;8.534;2022-11-18T15:56:25;9.87;;;6.30;;
13943;SDS011;7044;53.286;8.534;2022-11-18T15:58:55;9.27;;;6.30;;
13943;SDS011;7044;53.286;8.534;2022-11-18T16:01:23;7.77;;;5.57;;
13943;SDS011;7044;53.286;8.534;2022-11-18T16:03:51;11.33;;;6.13;;
13943;SDS011;7044;53.286;8.534;2022-11-18T16:06:18;7.00;;;5.17;;
13943;SDS011;7044;53.286;8.534;2022-11-18T16:08:45;10.17;;;5.37;;
13943;SDS011;7044;53.286;8.534;2022-11-18T16:11:13;8.73;;;5.63;;
13943;SDS011;7044;53.286;8.534;2022-11-18T16:14:00;8.53;;;5.10;;
13943;SDS011;7044;53.286;8.534;2022-11-18T16:16:27;9.47;;;5.20;;
13943;SDS011;7044;53.286;8.534;2022-11-18T16:18:55;7.77;;;5.17;;
13943;SDS011;7044;53.286;8.534;2022-11-18T16:21:22;9.03;;;5.37;;